sensor_id;sensor_type;location;lat;lon;timestamp;temperature;humidity
66144;SHT31;52947;50.842;6.084;2023-04-24T00:02:09;9.47;79.10
66144;SHT31;52947;50.842;6.084;2023-04-24T00:04:37;9.46;79.65
66144;SHT31;52947;50.842;6.084;2023-04-24T00:07:07;9.43;80.33
66144;SHT31;52947;50.842;6.084;2023-04-24T00:09:35;9.41;80.13
66144;SHT31;52947;50.842;6.084;2023-04-24T00:12:04;9.33;79.46
66144;SHT31;52947;50.842;6.084;2023-04-24T00:14:32;9.30;78.85
66144;SHT31;52947;50.842;6.084;2023-04-24T00:17:01;9.24;79.29
66144;SHT31;52947;50.842;6.084;2023-04-24T00:19:29;9.12;79.92
66144;SHT31;52947;50.842;6.084;2023-04-24T00:21:57;9.00;80.39
66144;SHT31;52947;50.842;6.084;2023-04-24T00:24:25;8.97;80.76
66144;SHT31;52947;50.842;6.084;2023-04-24T00:26:53;8.92;80.98
66144;SHT31;52947;50.842;6.084;2023-04-24T00:29:22;8.90;81.01
66144;SHT31;52947;50.842;6.084;2023-04-24T00:31:50;8.83;81.13
66144;SHT31;52947;50.842;6.084;2023-04-24T00:34:18;8.79;81.49
66144;SHT31;52947;50.842;6.084;2023-04-24T00:36:46;8.82;81.57
66144;SHT31;52947;50.842;6.084;2023-04-24T00:39:17;8.80;81.54
66144;SHT31;52947;50.842;6.084;2023-04-24T00:41:45;8.82;81.69
66144;SHT31;52947;50.842;6.084;2023-04-24T00:44:14;8.82;81.54
66144;SHT31;52947;50.842;6.084;2023-04-24T00:46:43;8.83;81.58
66144;SHT31;52947;50.842;6.084;2023-04-24T00:49:11;8.86;81.45
66144;SHT31;52947;50.842;6.084;2023-04-24T00:51:39;8.83;81.56
66144;SHT31;52947;50.842;6.084;2023-04-24T00:54:12;8.79;81.55
66144;SHT31;52947;50.842;6.084;2023-04-24T00:56:40;8.78;81.73
66144;SHT31;52947;50.842;6.084;2023-04-24T00:59:09;8.78;81.85
66144;SHT31;52947;50.842;6.084;2023-04-24T01:01:38;8.78;81.91
66144;SHT31;52947;50.842;6.084;2023-04-24T01:04:11;8.75;82.10
66144;SHT31;52947;50.842;6.084;2023-04-24T01:06:40;8.76;82.15
66144;SHT31;52947;50.842;6.084;2023-04-24T01:09:08;8.75;82.19
66144;SHT31;52947;50.842;6.084;2023-04-24T01:11:37;8.76;82.26
66144;SHT31;52947;50.842;6.084;2023-04-24T01:14:06;8.73;82.42
66144;SHT31;52947;50.842;6.084;2023-04-24T01:16:33;8.76;82.33
66144;SHT31;52947;50.842;6.084;2023-04-24T01:19:02;8.73;82.48
66144;SHT31;52947;50.842;6.084;2023-04-24T01:21:35;8.71;82.53
66144;SHT31;52947;50.842;6.084;2023-04-24T01:24:06;8.71;82.59
66144;SHT31;52947;50.842;6.084;2023-04-24T01:26:34;8.73;82.62
66144;SHT31;52947;50.842;6.084;2023-04-24T01:29:02;8.79;82.56
66144;SHT31;52947;50.842;6.084;2023-04-24T01:31:30;8.76;82.37
66144;SHT31;52947;50.842;6.084;2023-04-24T01:33:58;8.72;82.50
66144;SHT31;52947;50.842;6.084;2023-04-24T01:36:27;8.79;82.36
66144;SHT31;52947;50.842;6.084;2023-04-24T01:38:56;8.79;82.35
66144;SHT31;52947;50.842;6.084;2023-04-24T01:41:26;8.80;82.13
66144;SHT31;52947;50.842;6.084;2023-04-24T01:43:55;8.76;82.34
66144;SHT31;52947;50.842;6.084;2023-04-24T01:46:24;8.75;82.26
66144;SHT31;52947;50.842;6.084;2023-04-24T01:48:53;8.76;82.17
66144;SHT31;52947;50.842;6.084;2023-04-24T01:51:21;8.78;82.24
66144;SHT31;52947;50.842;6.084;2023-04-24T01:53:49;8.80;82.08
66144;SHT31;52947;50.842;6.084;2023-04-24T01:56:17;8.76;82.20
66144;SHT31;52947;50.842;6.084;2023-04-24T01:58:48;8.75;82.38
66144;SHT31;52947;50.842;6.084;2023-04-24T02:01:18;8.78;82.32
66144;SHT31;52947;50.842;6.084;2023-04-24T02:03:47;8.75;82.32
66144;SHT31;52947;50.842;6.084;2023-04-24T02:06:15;8.79;82.22
66144;SHT31;52947;50.842;6.084;2023-04-24T02:08:43;8.76;82.29
66144;SHT31;52947;50.842;6.084;2023-04-24T02:11:11;8.73;82.44
66144;SHT31;52947;50.842;6.084;2023-04-24T02:13:39;8.69;82.38
66144;SHT31;52947;50.842;6.084;2023-04-24T02:16:08;8.66;82.60
66144;SHT31;52947;50.842;6.084;2023-04-24T02:18:36;8.68;82.49
66144;SHT31;52947;50.842;6.084;2023-04-24T02:21:03;8.66;82.66
66144;SHT31;52947;50.842;6.084;2023-04-24T02:23:31;8.65;82.64
66144;SHT31;52947;50.842;6.084;2023-04-24T02:25:59;8.68;82.61
66144;SHT31;52947;50.842;6.084;2023-04-24T02:28:27;8.66;82.64
66144;SHT31;52947;50.842;6.084;2023-04-24T02:30:56;8.65;82.59
66144;SHT31;52947;50.842;6.084;2023-04-24T02:33:25;8.65;82.76
66144;SHT31;52947;50.842;6.084;2023-04-24T02:35:53;8.65;82.73
66144;SHT31;52947;50.842;6.084;2023-04-24T02:38:21;8.65;82.64
66144;SHT31;52947;50.842;6.084;2023-04-24T02:40:49;8.59;82.79
66144;SHT31;52947;50.842;6.084;2023-04-24T02:43:17;8.61;82.75
66144;SHT31;52947;50.842;6.084;2023-04-24T02:45:44;8.56;82.73
66144;SHT31;52947;50.842;6.084;2023-04-24T02:48:12;8.55;82.81
66144;SHT31;52947;50.842;6.084;2023-04-24T02:50:42;8.56;82.68
66144;SHT31;52947;50.842;6.084;2023-04-24T02:53:09;8.55;82.91
66144;SHT31;52947;50.842;6.084;2023-04-24T02:55:37;8.52;82.96
66144;SHT31;52947;50.842;6.084;2023-04-24T02:58:06;8.55;82.91
66144;SHT31;52947;50.842;6.084;2023-04-24T03:00:34;8.62;83.11
66144;SHT31;52947;50.842;6.084;2023-04-24T03:03:02;8.73;83.76
66144;SHT31;52947;50.842;6.084;2023-04-24T03:05:30;8.76;83.18
66144;SHT31;52947;50.842;6.084;2023-04-24T03:08:00;8.75;83.84
66144;SHT31;52947;50.842;6.084;2023-04-24T03:10:27;8.72;83.78
66144;SHT31;52947;50.842;6.084;2023-04-24T03:12:55;8.73;83.39
66144;SHT31;52947;50.842;6.084;2023-04-24T03:15:23;8.73;83.51
66144;SHT31;52947;50.842;6.084;2023-04-24T03:17:51;8.66;83.38
66144;SHT31;52947;50.842;6.084;2023-04-24T03:20:22;8.71;83.82
66144;SHT31;52947;50.842;6.084;2023-04-24T03:22:51;8.65;82.83
66144;SHT31;52947;50.842;6.084;2023-04-24T03:25:20;8.75;83.88
66144;SHT31;52947;50.842;6.084;2023-04-24T03:27:48;8.78;83.18
66144;SHT31;52947;50.842;6.084;2023-04-24T03:30:33;8.76;83.40
66144;SHT31;52947;50.842;6.084;2023-04-24T03:33:02;8.80;83.72
66144;SHT31;52947;50.842;6.084;2023-04-24T03:35:34;8.79;82.96
66144;SHT31;52947;50.842;6.084;2023-04-24T03:38:06;8.73;83.56
66144;SHT31;52947;50.842;6.084;2023-04-24T03:40:42;8.66;82.44
66144;SHT31;52947;50.842;6.084;2023-04-24T03:43:22;8.65;83.52
66144;SHT31;52947;50.842;6.084;2023-04-24T03:45:50;8.56;83.35
66144;SHT31;52947;50.842;6.084;2023-04-24T03:48:19;8.56;83.41
66144;SHT31;52947;50.842;6.084;2023-04-24T03:50:47;8.61;84.38
66144;SHT31;52947;50.842;6.084;2023-04-24T03:53:15;8.55;83.61
66144;SHT31;52947;50.842;6.084;2023-04-24T03:55:44;8.56;84.02
66144;SHT31;52947;50.842;6.084;2023-04-24T03:58:13;8.54;83.82
66144;SHT31;52947;50.842;6.084;2023-04-24T04:00:41;8.54;84.11
66144;SHT31;52947;50.842;6.084;2023-04-24T04:03:31;8.45;84.64
66144;SHT31;52947;50.842;6.084;2023-04-24T04:05:59;8.33;84.67
66144;SHT31;52947;50.842;6.084;2023-04-24T04:08:27;8.25;84.95
66144;SHT31;52947;50.842;6.084;2023-04-24T04:10:57;8.27;85.74
66144;SHT31;52947;50.842;6.084;2023-04-24T04:13:25;8.31;85.55
66144;SHT31;52947;50.842;6.084;2023-04-24T04:15:52;8.27;85.29
66144;SHT31;52947;50.842;6.084;2023-04-24T04:18:20;8.25;85.53
66144;SHT31;52947;50.842;6.084;2023-04-24T04:20:48;8.27;86.30
66144;SHT31;52947;50.842;6.084;2023-04-24T04:23:17;8.30;86.13
66144;SHT31;52947;50.842;6.084;2023-04-24T04:26:05;8.25;86.31
66144;SHT31;52947;50.842;6.084;2023-04-24T04:28:50;8.17;86.60
66144;SHT31;52947;50.842;6.084;2023-04-24T04:31:19;8.14;86.89
66144;SHT31;52947;50.842;6.084;2023-04-24T04:33:48;8.07;87.15
66144;SHT31;52947;50.842;6.084;2023-04-24T04:36:16;8.16;87.60
66144;SHT31;52947;50.842;6.084;2023-04-24T04:38:50;8.11;87.53
66144;SHT31;52947;50.842;6.084;2023-04-24T04:41:38;8.06;87.51
66144;SHT31;52947;50.842;6.084;2023-04-24T04:44:08;8.06;88.18
66144;SHT31;52947;50.842;6.084;2023-04-24T04:46:36;8.07;87.84
66144;SHT31;52947;50.842;6.084;2023-04-24T04:49:11;8.01;88.08
66144;SHT31;52947;50.842;6.084;2023-04-24T04:51:39;7.97;88.13
66144;SHT31;52947;50.842;6.084;2023-04-24T04:54:09;7.97;88.59
66144;SHT31;52947;50.842;6.084;2023-04-24T04:56:38;7.98;88.70
66144;SHT31;52947;50.842;6.084;2023-04-24T04:59:06;7.97;88.27
66144;SHT31;52947;50.842;6.084;2023-04-24T05:01:36;8.04;88.45
66144;SHT31;52947;50.842;6.084;2023-04-24T05:04:06;8.10;88.82
66144;SHT31;52947;50.842;6.084;2023-04-24T05:06:36;8.04;88.20
66144;SHT31;52947;50.842;6.084;2023-04-24T05:09:05;8.00;87.50
66144;SHT31;52947;50.842;6.084;2023-04-24T05:11:55;7.97;87.69
66144;SHT31;52947;50.842;6.084;2023-04-24T05:14:25;7.96;87.77
66144;SHT31;52947;50.842;6.084;2023-04-24T05:16:52;7.97;87.31
66144;SHT31;52947;50.842;6.084;2023-04-24T05:19:23;8.16;87.94
66144;SHT31;52947;50.842;6.084;2023-04-24T05:21:51;8.20;87.09
66144;SHT31;52947;50.842;6.084;2023-04-24T05:24:19;8.13;87.16
66144;SHT31;52947;50.842;6.084;2023-04-24T05:27:07;8.08;87.90
66144;SHT31;52947;50.842;6.084;2023-04-24T05:29:39;8.03;88.35
66144;SHT31;52947;50.842;6.084;2023-04-24T05:32:08;7.94;88.52
66144;SHT31;52947;50.842;6.084;2023-04-24T05:34:36;7.89;88.52
66144;SHT31;52947;50.842;6.084;2023-04-24T05:37:04;7.82;88.87
66144;SHT31;52947;50.842;6.084;2023-04-24T05:39:34;7.80;89.07
66144;SHT31;52947;50.842;6.084;2023-04-24T05:42:03;7.70;89.45
66144;SHT31;52947;50.842;6.084;2023-04-24T05:44:32;7.62;89.90
66144;SHT31;52947;50.842;6.084;2023-04-24T05:47:00;7.59;89.87
66144;SHT31;52947;50.842;6.084;2023-04-24T05:49:28;7.58;90.01
66144;SHT31;52947;50.842;6.084;2023-04-24T05:51:57;7.59;89.55
66144;SHT31;52947;50.842;6.084;2023-04-24T05:54:24;7.58;90.10
66144;SHT31;52947;50.842;6.084;2023-04-24T05:56:52;7.65;89.81
66144;SHT31;52947;50.842;6.084;2023-04-24T05:59:33;7.69;89.58
66144;SHT31;52947;50.842;6.084;2023-04-24T06:02:01;7.70;89.92
66144;SHT31;52947;50.842;6.084;2023-04-24T06:04:29;7.62;90.20
66144;SHT31;52947;50.842;6.084;2023-04-24T06:06:58;7.67;90.73
66144;SHT31;52947;50.842;6.084;2023-04-24T06:09:26;7.61;90.77
66144;SHT31;52947;50.842;6.084;2023-04-24T06:11:54;7.69;90.80
66144;SHT31;52947;50.842;6.084;2023-04-24T06:14:28;7.77;90.69
66144;SHT31;52947;50.842;6.084;2023-04-24T06:17:20;7.75;90.18
66144;SHT31;52947;50.842;6.084;2023-04-24T06:19:49;7.66;90.48
66144;SHT31;52947;50.842;6.084;2023-04-24T06:22:20;7.72;90.52
66144;SHT31;52947;50.842;6.084;2023-04-24T06:24:48;7.77;91.02
66144;SHT31;52947;50.842;6.084;2023-04-24T06:27:16;7.77;91.00
66144;SHT31;52947;50.842;6.084;2023-04-24T06:29:44;7.73;91.20
66144;SHT31;52947;50.842;6.084;2023-04-24T06:32:12;7.75;89.86
66144;SHT31;52947;50.842;6.084;2023-04-24T06:34:41;7.76;90.87
66144;SHT31;52947;50.842;6.084;2023-04-24T06:37:09;7.80;90.79
66144;SHT31;52947;50.842;6.084;2023-04-24T06:39:37;7.79;95.57
66144;SHT31;52947;50.842;6.084;2023-04-24T06:42:05;7.83;94.99
66144;SHT31;52947;50.842;6.084;2023-04-24T06:44:34;7.76;89.73
66144;SHT31;52947;50.842;6.084;2023-04-24T06:47:08;7.73;89.98
66144;SHT31;52947;50.842;6.084;2023-04-24T06:49:36;7.67;89.70
66144;SHT31;52947;50.842;6.084;2023-04-24T06:52:06;7.59;89.82
66144;SHT31;52947;50.842;6.084;2023-04-24T06:54:34;7.58;89.18
66144;SHT31;52947;50.842;6.084;2023-04-24T06:57:02;7.58;89.66
66144;SHT31;52947;50.842;6.084;2023-04-24T06:59:30;7.59;89.56
66144;SHT31;52947;50.842;6.084;2023-04-24T07:01:58;7.65;89.42
66144;SHT31;52947;50.842;6.084;2023-04-24T07:04:25;7.61;89.68
66144;SHT31;52947;50.842;6.084;2023-04-24T07:06:55;7.65;89.97
66144;SHT31;52947;50.842;6.084;2023-04-24T07:09:25;7.63;90.05
66144;SHT31;52947;50.842;6.084;2023-04-24T07:11:53;7.61;90.22
66144;SHT31;52947;50.842;6.084;2023-04-24T07:14:22;7.72;90.51
66144;SHT31;52947;50.842;6.084;2023-04-24T07:16:50;7.63;89.93
66144;SHT31;52947;50.842;6.084;2023-04-24T07:19:18;7.56;90.24
66144;SHT31;52947;50.842;6.084;2023-04-24T07:21:46;7.70;90.15
66144;SHT31;52947;50.842;6.084;2023-04-24T07:24:14;7.72;90.15
66144;SHT31;52947;50.842;6.084;2023-04-24T07:26:43;7.66;89.73
66144;SHT31;52947;50.842;6.084;2023-04-24T07:29:13;7.63;89.41
66144;SHT31;52947;50.842;6.084;2023-04-24T07:31:41;7.55;89.69
66144;SHT31;52947;50.842;6.084;2023-04-24T07:34:09;7.38;89.46
66144;SHT31;52947;50.842;6.084;2023-04-24T07:36:37;7.43;89.68
66144;SHT31;52947;50.842;6.084;2023-04-24T07:39:05;7.35;89.43
66144;SHT31;52947;50.842;6.084;2023-04-24T07:41:33;7.34;89.36
66144;SHT31;52947;50.842;6.084;2023-04-24T07:44:03;7.42;89.88
66144;SHT31;52947;50.842;6.084;2023-04-24T07:46:30;7.39;89.84
66144;SHT31;52947;50.842;6.084;2023-04-24T07:48:59;7.48;89.90
66144;SHT31;52947;50.842;6.084;2023-04-24T07:51:39;7.35;89.93
66144;SHT31;52947;50.842;6.084;2023-04-24T07:54:08;7.36;90.09
66144;SHT31;52947;50.842;6.084;2023-04-24T07:56:36;7.38;90.31
66144;SHT31;52947;50.842;6.084;2023-04-24T07:59:07;7.49;90.36
66144;SHT31;52947;50.842;6.084;2023-04-24T08:01:36;7.51;90.62
66144;SHT31;52947;50.842;6.084;2023-04-24T08:04:04;7.55;90.58
66144;SHT31;52947;50.842;6.084;2023-04-24T08:06:32;7.58;90.71
66144;SHT31;52947;50.842;6.084;2023-04-24T08:09:01;7.46;90.85
66144;SHT31;52947;50.842;6.084;2023-04-24T08:11:28;7.75;91.05
66144;SHT31;52947;50.842;6.084;2023-04-24T08:13:56;7.91;90.78
66144;SHT31;52947;50.842;6.084;2023-04-24T08:16:27;8.01;90.00
66144;SHT31;52947;50.842;6.084;2023-04-24T08:18:55;8.10;89.84
66144;SHT31;52947;50.842;6.084;2023-04-24T08:21:23;8.13;89.94
66144;SHT31;52947;50.842;6.084;2023-04-24T08:23:53;8.21;89.91
66144;SHT31;52947;50.842;6.084;2023-04-24T08:26:21;8.23;89.77
66144;SHT31;52947;50.842;6.084;2023-04-24T08:28:49;8.11;89.72
66144;SHT31;52947;50.842;6.084;2023-04-24T08:31:17;7.96;89.39
66144;SHT31;52947;50.842;6.084;2023-04-24T08:33:46;7.93;90.03
66144;SHT31;52947;50.842;6.084;2023-04-24T08:36:14;7.91;89.12
66144;SHT31;52947;50.842;6.084;2023-04-24T08:38:42;7.70;89.80
66144;SHT31;52947;50.842;6.084;2023-04-24T08:41:10;7.93;89.71
66144;SHT31;52947;50.842;6.084;2023-04-24T08:43:39;7.79;89.49
66144;SHT31;52947;50.842;6.084;2023-04-24T08:46:07;7.76;89.17
66144;SHT31;52947;50.842;6.084;2023-04-24T08:48:38;7.73;89.43
66144;SHT31;52947;50.842;6.084;2023-04-24T08:51:08;7.75;89.47
66144;SHT31;52947;50.842;6.084;2023-04-24T08:53:37;7.77;89.39
66144;SHT31;52947;50.842;6.084;2023-04-24T08:56:05;7.65;89.37
66144;SHT31;52947;50.842;6.084;2023-04-24T08:58:35;7.58;89.73
66144;SHT31;52947;50.842;6.084;2023-04-24T09:01:03;7.69;90.03
66144;SHT31;52947;50.842;6.084;2023-04-24T09:03:33;7.82;90.28
66144;SHT31;52947;50.842;6.084;2023-04-24T09:06:01;7.79;89.84
66144;SHT31;52947;50.842;6.084;2023-04-24T09:08:32;7.75;89.52
66144;SHT31;52947;50.842;6.084;2023-04-24T09:11:00;7.66;90.04
66144;SHT31;52947;50.842;6.084;2023-04-24T09:13:30;7.79;90.53
66144;SHT31;52947;50.842;6.084;2023-04-24T09:15:59;7.86;90.21
66144;SHT31;52947;50.842;6.084;2023-04-24T09:18:27;7.97;89.87
66144;SHT31;52947;50.842;6.084;2023-04-24T09:21:00;7.83;90.54
66144;SHT31;52947;50.842;6.084;2023-04-24T09:23:28;7.72;89.91
66144;SHT31;52947;50.842;6.084;2023-04-24T09:25:59;7.87;90.59
66144;SHT31;52947;50.842;6.084;2023-04-24T09:28:30;7.79;93.43
66144;SHT31;52947;50.842;6.084;2023-04-24T09:31:06;7.84;90.00
66144;SHT31;52947;50.842;6.084;2023-04-24T09:33:35;8.04;90.50
66144;SHT31;52947;50.842;6.084;2023-04-24T09:36:03;8.24;90.46
66144;SHT31;52947;50.842;6.084;2023-04-24T09:38:34;8.35;89.97
66144;SHT31;52947;50.842;6.084;2023-04-24T09:41:05;8.78;89.26
66144;SHT31;52947;50.842;6.084;2023-04-24T09:43:34;9.02;88.35
66144;SHT31;52947;50.842;6.084;2023-04-24T09:46:06;9.44;88.11
66144;SHT31;52947;50.842;6.084;2023-04-24T09:48:36;9.73;87.65
66144;SHT31;52947;50.842;6.084;2023-04-24T09:51:05;10.01;86.89
66144;SHT31;52947;50.842;6.084;2023-04-24T09:53:37;10.02;85.76
66144;SHT31;52947;50.842;6.084;2023-04-24T09:56:11;10.02;86.64
66144;SHT31;52947;50.842;6.084;2023-04-24T09:58:39;9.79;86.59
66144;SHT31;52947;50.842;6.084;2023-04-24T10:01:07;9.38;85.76
66144;SHT31;52947;50.842;6.084;2023-04-24T10:03:35;9.22;86.95
66144;SHT31;52947;50.842;6.084;2023-04-24T10:06:04;9.36;87.05
66144;SHT31;52947;50.842;6.084;2023-04-24T10:08:36;9.46;86.08
66144;SHT31;52947;50.842;6.084;2023-04-24T10:11:05;9.57;85.76
66144;SHT31;52947;50.842;6.084;2023-04-24T10:13:35;9.38;85.95
66144;SHT31;52947;50.842;6.084;2023-04-24T10:16:04;9.10;85.71
66144;SHT31;52947;50.842;6.084;2023-04-24T10:18:32;9.02;86.34
66144;SHT31;52947;50.842;6.084;2023-04-24T10:21:00;9.31;85.98
66144;SHT31;52947;50.842;6.084;2023-04-24T10:23:30;10.57;85.08
66144;SHT31;52947;50.842;6.084;2023-04-24T10:25:59;11.35;82.96
66144;SHT31;52947;50.842;6.084;2023-04-24T10:28:29;11.11;81.53
66144;SHT31;52947;50.842;6.084;2023-04-24T10:31:00;10.94;82.46
66144;SHT31;52947;50.842;6.084;2023-04-24T10:33:29;10.73;82.81
66144;SHT31;52947;50.842;6.084;2023-04-24T10:35:58;10.67;81.93
66144;SHT31;52947;50.842;6.084;2023-04-24T10:38:26;12.00;80.20
66144;SHT31;52947;50.842;6.084;2023-04-24T10:40:57;12.43;80.16
66144;SHT31;52947;50.842;6.084;2023-04-24T10:43:25;12.51;78.70
66144;SHT31;52947;50.842;6.084;2023-04-24T10:46:01;13.56;77.63
66144;SHT31;52947;50.842;6.084;2023-04-24T10:48:31;13.35;76.47
66144;SHT31;52947;50.842;6.084;2023-04-24T10:50:59;13.42;77.53
66144;SHT31;52947;50.842;6.084;2023-04-24T10:53:28;13.73;76.92
66144;SHT31;52947;50.842;6.084;2023-04-24T10:55:58;13.12;77.29
66144;SHT31;52947;50.842;6.084;2023-04-24T10:58:36;12.51;77.95
66144;SHT31;52947;50.842;6.084;2023-04-24T11:01:06;12.04;78.76
66144;SHT31;52947;50.842;6.084;2023-04-24T11:03:35;11.65;80.18
66144;SHT31;52947;50.842;6.084;2023-04-24T11:06:05;11.34;80.75
66144;SHT31;52947;50.842;6.084;2023-04-24T11:08:38;11.24;81.15
66144;SHT31;52947;50.842;6.084;2023-04-24T11:11:11;11.51;81.24
66144;SHT31;52947;50.842;6.084;2023-04-24T11:14:01;11.78;79.08
66144;SHT31;52947;50.842;6.084;2023-04-24T11:16:32;12.14;77.92
66144;SHT31;52947;50.842;6.084;2023-04-24T11:19:04;12.40;77.03
66144;SHT31;52947;50.842;6.084;2023-04-24T11:21:38;12.06;77.10
66144;SHT31;52947;50.842;6.084;2023-04-24T11:24:23;11.68;77.84
66144;SHT31;52947;50.842;6.084;2023-04-24T11:26:53;11.49;78.53
66144;SHT31;52947;50.842;6.084;2023-04-24T11:29:21;11.66;79.38
66144;SHT31;52947;50.842;6.084;2023-04-24T11:31:51;11.92;78.65
66144;SHT31;52947;50.842;6.084;2023-04-24T11:34:20;12.23;77.45
66144;SHT31;52947;50.842;6.084;2023-04-24T11:36:48;12.31;76.36
66144;SHT31;52947;50.842;6.084;2023-04-24T11:39:16;12.38;76.88
66144;SHT31;52947;50.842;6.084;2023-04-24T11:41:44;12.27;76.04
66144;SHT31;52947;50.842;6.084;2023-04-24T11:44:13;12.13;76.59
66144;SHT31;52947;50.842;6.084;2023-04-24T11:46:41;12.36;76.71
66144;SHT31;52947;50.842;6.084;2023-04-24T11:49:12;12.58;76.10
66144;SHT31;52947;50.842;6.084;2023-04-24T11:51:39;12.78;74.47
66144;SHT31;52947;50.842;6.084;2023-04-24T11:54:18;13.08;73.13
66144;SHT31;52947;50.842;6.084;2023-04-24T11:56:47;13.30;72.63
66144;SHT31;52947;50.842;6.084;2023-04-24T11:59:15;13.40;71.41
66144;SHT31;52947;50.842;6.084;2023-04-24T12:01:43;12.88;72.06
66144;SHT31;52947;50.842;6.084;2023-04-24T12:04:13;12.47;72.92
66144;SHT31;52947;50.842;6.084;2023-04-24T12:07:00;12.23;74.33
66144;SHT31;52947;50.842;6.084;2023-04-24T12:09:28;12.00;74.66
66144;SHT31;52947;50.842;6.084;2023-04-24T12:11:56;11.90;75.05
66144;SHT31;52947;50.842;6.084;2023-04-24T12:14:24;11.55;75.34
66144;SHT31;52947;50.842;6.084;2023-04-24T12:16:52;11.32;76.83
66144;SHT31;52947;50.842;6.084;2023-04-24T12:19:22;10.94;77.30
66144;SHT31;52947;50.842;6.084;2023-04-24T12:22:00;10.96;77.94
66144;SHT31;52947;50.842;6.084;2023-04-24T12:24:29;11.10;77.60
66144;SHT31;52947;50.842;6.084;2023-04-24T12:26:58;11.39;76.83
66144;SHT31;52947;50.842;6.084;2023-04-24T12:29:28;12.23;75.07
66144;SHT31;52947;50.842;6.084;2023-04-24T12:31:55;12.41;75.06
66144;SHT31;52947;50.842;6.084;2023-04-24T12:34:25;12.29;72.93
66144;SHT31;52947;50.842;6.084;2023-04-24T12:36:53;11.99;72.32
66144;SHT31;52947;50.842;6.084;2023-04-24T12:39:21;11.73;73.32
66144;SHT31;52947;50.842;6.084;2023-04-24T12:41:54;11.55;74.11
66144;SHT31;52947;50.842;6.084;2023-04-24T12:44:30;11.48;72.81
66144;SHT31;52947;50.842;6.084;2023-04-24T12:46:59;11.36;73.35
66144;SHT31;52947;50.842;6.084;2023-04-24T12:49:30;11.52;72.20
66144;SHT31;52947;50.842;6.084;2023-04-24T12:51:58;11.51;72.57
66144;SHT31;52947;50.842;6.084;2023-04-24T12:54:32;11.46;73.09
66144;SHT31;52947;50.842;6.084;2023-04-24T12:57:00;11.32;73.37
66144;SHT31;52947;50.842;6.084;2023-04-24T12:59:28;11.25;72.69
66144;SHT31;52947;50.842;6.084;2023-04-24T13:01:56;11.17;72.71
66144;SHT31;52947;50.842;6.084;2023-04-24T13:04:24;11.41;73.36
66144;SHT31;52947;50.842;6.084;2023-04-24T13:06:53;11.49;72.78
66144;SHT31;52947;50.842;6.084;2023-04-24T13:09:21;12.74;70.61
66144;SHT31;52947;50.842;6.084;2023-04-24T13:11:50;13.29;68.47
66144;SHT31;52947;50.842;6.084;2023-04-24T13:14:18;12.99;67.16
66144;SHT31;52947;50.842;6.084;2023-04-24T13:16:46;12.80;68.78
66144;SHT31;52947;50.842;6.084;2023-04-24T13:19:14;12.99;69.42
66144;SHT31;52947;50.842;6.084;2023-04-24T13:21:42;12.71;69.04
66144;SHT31;52947;50.842;6.084;2023-04-24T13:24:11;12.47;68.23
66144;SHT31;52947;50.842;6.084;2023-04-24T13:26:39;12.41;68.71
66144;SHT31;52947;50.842;6.084;2023-04-24T13:29:07;12.54;68.04
66144;SHT31;52947;50.842;6.084;2023-04-24T13:31:35;12.74;68.51
66144;SHT31;52947;50.842;6.084;2023-04-24T13:34:03;12.69;67.35
66144;SHT31;52947;50.842;6.084;2023-04-24T13:36:31;12.45;68.06
66144;SHT31;52947;50.842;6.084;2023-04-24T13:38:59;12.33;68.66
66144;SHT31;52947;50.842;6.084;2023-04-24T13:41:28;12.43;70.12
66144;SHT31;52947;50.842;6.084;2023-04-24T13:43:56;12.51;68.84
66144;SHT31;52947;50.842;6.084;2023-04-24T13:46:24;12.75;69.24
66144;SHT31;52947;50.842;6.084;2023-04-24T13:48:52;12.84;69.21
66144;SHT31;52947;50.842;6.084;2023-04-24T13:51:20;12.78;68.75
66144;SHT31;52947;50.842;6.084;2023-04-24T13:53:48;12.75;66.94
66144;SHT31;52947;50.842;6.084;2023-04-24T13:56:15;12.71;67.01
66144;SHT31;52947;50.842;6.084;2023-04-24T13:58:45;12.61;67.48
66144;SHT31;52947;50.842;6.084;2023-04-24T14:01:13;12.44;68.25
66144;SHT31;52947;50.842;6.084;2023-04-24T14:03:41;12.38;68.67
66144;SHT31;52947;50.842;6.084;2023-04-24T14:06:10;12.61;68.58
66144;SHT31;52947;50.842;6.084;2023-04-24T14:08:38;12.81;67.69
66144;SHT31;52947;50.842;6.084;2023-04-24T14:11:06;12.91;66.54
66144;SHT31;52947;50.842;6.084;2023-04-24T14:13:35;13.06;66.49
66144;SHT31;52947;50.842;6.084;2023-04-24T14:16:05;13.12;66.18
66144;SHT31;52947;50.842;6.084;2023-04-24T14:18:34;13.16;66.45
66144;SHT31;52947;50.842;6.084;2023-04-24T14:21:03;12.98;66.12
66144;SHT31;52947;50.842;6.084;2023-04-24T14:23:31;12.98;65.78
66144;SHT31;52947;50.842;6.084;2023-04-24T14:25:59;12.88;66.06
66144;SHT31;52947;50.842;6.084;2023-04-24T14:28:27;12.81;64.33
66144;SHT31;52947;50.842;6.084;2023-04-24T14:30:55;12.61;65.35
66144;SHT31;52947;50.842;6.084;2023-04-24T14:33:24;12.65;65.57
66144;SHT31;52947;50.842;6.084;2023-04-24T14:35:52;12.69;65.84
66144;SHT31;52947;50.842;6.084;2023-04-24T14:38:21;12.61;65.78
66144;SHT31;52947;50.842;6.084;2023-04-24T14:40:49;12.63;65.92
66144;SHT31;52947;50.842;6.084;2023-04-24T14:43:32;12.68;67.72
66144;SHT31;52947;50.842;6.084;2023-04-24T14:46:02;12.38;66.34
66144;SHT31;52947;50.842;6.084;2023-04-24T14:48:31;12.38;66.67
66144;SHT31;52947;50.842;6.084;2023-04-24T14:50:59;12.71;66.19
66144;SHT31;52947;50.842;6.084;2023-04-24T14:53:27;12.92;66.01
66144;SHT31;52947;50.842;6.084;2023-04-24T14:55:55;13.19;66.28
66144;SHT31;52947;50.842;6.084;2023-04-24T14:58:23;13.33;66.26
66144;SHT31;52947;50.842;6.084;2023-04-24T15:00:50;13.25;65.96
66144;SHT31;52947;50.842;6.084;2023-04-24T15:03:20;13.26;66.99
66144;SHT31;52947;50.842;6.084;2023-04-24T15:05:51;13.23;65.82
66144;SHT31;52947;50.842;6.084;2023-04-24T15:08:19;13.15;65.17
66144;SHT31;52947;50.842;6.084;2023-04-24T15:10:47;13.08;65.37
66144;SHT31;52947;50.842;6.084;2023-04-24T15:13:15;12.94;66.13
66144;SHT31;52947;50.842;6.084;2023-04-24T15:15:43;12.75;66.09
66144;SHT31;52947;50.842;6.084;2023-04-24T15:18:13;12.67;65.69
66144;SHT31;52947;50.842;6.084;2023-04-24T15:20:41;12.50;66.08
66144;SHT31;52947;50.842;6.084;2023-04-24T15:23:11;12.30;66.15
66144;SHT31;52947;50.842;6.084;2023-04-24T15:25:39;12.22;67.59
66144;SHT31;52947;50.842;6.084;2023-04-24T15:28:07;12.03;67.33
66144;SHT31;52947;50.842;6.084;2023-04-24T15:30:36;11.85;66.50
66144;SHT31;52947;50.842;6.084;2023-04-24T15:33:03;11.87;67.16
66144;SHT31;52947;50.842;6.084;2023-04-24T15:35:32;11.93;67.99
66144;SHT31;52947;50.842;6.084;2023-04-24T15:38:00;12.03;68.45
66144;SHT31;52947;50.842;6.084;2023-04-24T15:40:30;12.13;68.41
66144;SHT31;52947;50.842;6.084;2023-04-24T15:42:57;12.10;67.69
66144;SHT31;52947;50.842;6.084;2023-04-24T15:45:25;12.00;67.66
66144;SHT31;52947;50.842;6.084;2023-04-24T15:47:53;11.97;68.66
66144;SHT31;52947;50.842;6.084;2023-04-24T15:50:21;11.96;68.50
66144;SHT31;52947;50.842;6.084;2023-04-24T15:52:50;11.99;68.38
66144;SHT31;52947;50.842;6.084;2023-04-24T15:55:18;12.04;68.43